Time;durP1;ratioP1;P1;durP2;ratioP2;P2;SDS_P1;SDS_P2;PMS_P1;PMS_P2;Temp;Humidity;BMP_temperature;BMP_pressure;BME280_temperature;BME280_humidity;BME280_pressure;Samples;Min_cycle;Max_cycle;Signal;HPM_P1;HPM_P2
2021/09/04 00:00:15;;;;;;;31.70;18.60;;;;;;;12.25;100.00;102020.72;2610048;36;20614;-64
2021/09/04 00:02:44;;;;;;;29.85;17.75;;;;;;;12.25;100.00;102010.78;2608347;36;20034;-63
2021/09/04 00:05:12;;;;;;;30.33;18.08;;;;;;;12.15;100.00;102019.72;2608970;36;20117;-63
2021/09/04 00:07:43;;;;;;;33.35;18.58;;;;;;;12.12;100.00;102018.09;2611680;36;20070;-64
2021/09/04 00:10:13;;;;;;;27.98;17.40;;;;;;;12.11;100.00;102013.69;2614892;31;20130;-63
2021/09/04 00:12:41;;;;;;;34.33;18.73;;;;;;;12.12;100.00;102015.41;2614719;36;20042;-64
2021/09/04 00:15:11;;;;;;;38.83;18.48;;;;;;;12.04;100.00;102009.72;2615037;36;20038;-63
2021/09/04 00:17:39;;;;;;;32.42;17.92;;;;;;;12.08;100.00;102008.53;2616171;36;20125;-64
2021/09/04 00:20:09;;;;;;;32.15;18.35;;;;;;;11.98;100.00;102002.97;2614681;36;20034;-61
2021/09/04 00:22:37;;;;;;;36.30;19.23;;;;;;;11.95;100.00;102002.34;2616462;31;20509;-62
2021/09/04 00:25:09;;;;;;;31.40;18.65;;;;;;;11.92;100.00;102001.59;2616820;36;20423;-63
2021/09/04 00:27:37;;;;;;;40.53;20.95;;;;;;;11.91;100.00;101997.16;2614895;36;20175;-63
2021/09/04 00:30:06;;;;;;;35.22;19.50;;;;;;;11.86;100.00;101993.94;2614662;36;20150;-63
2021/09/04 00:32:35;;;;;;;38.30;19.35;;;;;;;11.86;100.00;101991.22;2615303;36;20037;-62
2021/09/04 00:35:03;;;;;;;38.10;18.92;;;;;;;11.80;100.00;101994.41;2615724;36;20125;-63
2021/09/04 00:37:31;;;;;;;34.13;19.83;;;;;;;11.77;100.00;101993.78;2615863;36;20035;-63
2021/09/04 00:39:59;;;;;;;36.53;20.10;;;;;;;11.76;100.00;101992.91;2616526;36;20129;-63
2021/09/04 00:42:30;;;;;;;31.23;19.67;;;;;;;11.73;100.00;101988.63;2615586;36;20435;-64
2021/09/04 00:44:58;;;;;;;34.63;18.92;;;;;;;11.73;100.00;101985.94;2615164;36;20114;-63
2021/09/04 00:47:27;;;;;;;31.05;18.42;;;;;;;11.79;100.00;101986.44;2615870;36;20042;-62
2021/09/04 00:49:55;;;;;;;32.25;19.02;;;;;;;11.70;100.00;101988.88;2614726;36;20102;-63
2021/09/04 00:52:23;;;;;;;34.45;19.45;;;;;;;11.67;100.00;101990.91;2613711;36;23246;-62
2021/09/04 00:54:52;;;;;;;35.55;20.55;;;;;;;11.65;100.00;101990.19;2615252;36;20126;-63
2021/09/04 00:57:20;;;;;;;40.13;21.00;;;;;;;11.67;100.00;101980.13;2615308;36;20137;-63
2021/09/04 00:59:51;;;;;;;38.77;20.83;;;;;;;11.66;100.00;101994.56;2615561;36;20085;-62
2021/09/04 01:02:20;;;;;;;43.35;22.17;;;;;;;11.60;100.00;101984.25;2614982;31;20146;-62
2021/09/04 01:04:48;;;;;;;45.10;24.65;;;;;;;11.57;100.00;101986.22;2616891;36;20563;-62
2021/09/04 01:07:16;;;;;;;46.60;23.55;;;;;;;11.58;100.00;101979.84;2616652;31;20030;-62
2021/09/04 01:09:45;;;;;;;42.97;23.58;;;;;;;11.63;100.00;101986.72;2615222;36;20544;-63
2021/09/04 01:12:13;;;;;;;39.10;21.85;;;;;;;11.50;100.00;101971.47;2615047;31;20630;-62
2021/09/04 01:14:42;;;;;;;40.37;22.73;;;;;;;11.63;100.00;101982.22;2615844;36;20129;-63
2021/09/04 01:17:12;;;;;;;41.33;21.40;;;;;;;11.61;100.00;101983.28;2615675;36;20411;-62
2021/09/04 01:19:41;;;;;;;40.15;22.38;;;;;;;11.54;100.00;101985.56;2615451;36;20023;-63
2021/09/04 01:22:09;;;;;;;32.97;20.10;;;;;;;11.51;100.00;101977.72;2614449;36;20038;-63
2021/09/04 01:24:37;;;;;;;39.40;21.45;;;;;;;11.54;100.00;101978.38;2614737;31;20484;-62
2021/09/04 01:27:08;;;;;;;41.77;20.93;;;;;;;11.62;100.00;101980.47;2614006;36;20757;-63
2021/09/04 01:29:37;;;;;;;39.55;20.67;;;;;;;11.67;100.00;101977.44;2613098;36;20431;-62
2021/09/04 01:32:06;;;;;;;40.40;22.73;;;;;;;11.74;100.00;101984.09;2614477;36;20111;-63
2021/09/04 01:34:34;;;;;;;45.33;21.33;;;;;;;11.82;100.00;101983.50;2615015;36;20077;-63
2021/09/04 01:37:02;;;;;;;38.53;20.98;;;;;;;11.84;100.00;101985.09;2615760;36;20153;-63
2021/09/04 01:39:30;;;;;;;38.67;20.27;;;;;;;11.94;100.00;101979.91;2615171;36;20118;-63
2021/09/04 01:41:58;;;;;;;34.55;20.10;;;;;;;11.96;100.00;101980.66;2615457;36;20089;-63
2021/09/04 01:44:29;;;;;;;33.65;20.27;;;;;;;12.03;100.00;101987.28;2614925;36;20367;-64
2021/09/04 01:46:57;;;;;;;37.10;19.88;;;;;;;12.07;100.00;101987.91;2615871;36;20141;-64
2021/09/04 01:49:26;;;;;;;33.67;19.95;;;;;;;12.14;100.00;101985.59;2615057;36;20125;-64
2021/09/04 01:51:54;;;;;;;36.17;20.17;;;;;;;12.18;100.00;101984.41;2614429;36;20081;-63
2021/09/04 01:54:22;;;;;;;35.05;20.40;;;;;;;12.15;100.00;101981.94;2615223;36;20122;-63
2021/09/04 01:56:50;;;;;;;32.88;19.20;;;;;;;12.22;100.00;101989.44;2614336;36;20129;-64
2021/09/04 01:59:18;;;;;;;37.58;20.33;;;;;;;12.19;100.00;101978.88;2614515;36;20149;-63
2021/09/04 02:01:49;;;;;;;35.55;19.70;;;;;;;12.27;100.00;101976.41;2614396;31;20121;-63
2021/09/04 02:04:17;;;;;;;35.10;18.50;;;;;;;12.27;100.00;101973.72;2614796;36;20166;-63
2021/09/04 02:06:45;;;;;;;33.67;18.98;;;;;;;12.29;100.00;101972.75;2615594;36;20030;-64
2021/09/04 02:09:14;;;;;;;32.47;19.13;;;;;;;12.27;100.00;101970.16;2616182;36;20570;-63
2021/09/04 02:11:42;;;;;;;37.67;21.35;;;;;;;12.32;100.00;101972.50;2616173;36;20041;-62
2021/09/04 02:14:10;;;;;;;34.78;19.63;;;;;;;12.38;100.00;101966.63;2616033;31;20114;-63
2021/09/04 02:16:38;;;;;;;34.80;19.40;;;;;;;12.49;100.00;101977.44;2614763;36;20027;-63
2021/09/04 02:19:09;;;;;;;33.83;18.40;;;;;;;12.44;100.00;101966.16;2615115;36;20030;-63
2021/09/04 02:21:38;;;;;;;33.45;19.30;;;;;;;12.44;100.00;101960.75;2616063;31;20487;-64
2021/09/04 02:24:07;;;;;;;30.48;18.30;;;;;;;12.57;100.00;101960.63;2615021;36;20030;-62
2021/09/04 02:26:36;;;;;;;30.90;17.65;;;;;;;12.51;100.00;101966.53;2615762;36;20149;-63
2021/09/04 02:29:04;;;;;;;36.27;19.20;;;;;;;12.59;100.00;101969.47;2615077;36;21359;-63
2021/09/04 02:31:32;;;;;;;34.03;18.10;;;;;;;12.58;100.00;101963.19;2615024;36;20533;-63
2021/09/04 02:34:01;;;;;;;32.05;17.80;;;;;;;12.61;100.00;101968.34;2613864;36;20191;-62
2021/09/04 02:36:32;;;;;;;33.38;18.35;;;;;;;12.58;100.00;101963.19;2614605;36;20125;-63
2021/09/04 02:39:00;;;;;;;32.67;19.23;;;;;;;12.61;100.00;101962.97;2615690;36;20108;-63
2021/09/04 02:41:28;;;;;;;34.13;18.50;;;;;;;12.64;100.00;101958.31;2614977;36;20081;-63
2021/09/04 02:43:56;;;;;;;34.75;18.92;;;;;;;12.65;100.00;101957.31;2614373;36;20081;-63
2021/09/04 02:46:24;;;;;;;32.80;19.15;;;;;;;12.62;100.00;101959.28;2614856;36;20630;-63
2021/09/04 02:48:53;;;;;;;29.23;17.42;;;;;;;12.63;100.00;101954.72;2615897;36;20121;-62
2021/09/04 02:51:21;;;;;;;30.58;18.50;;;;;;;12.66;100.00;101954.50;2616110;31;20787;-63
2021/09/04 02:53:52;;;;;;;36.42;19.17;;;;;;;12.71;100.00;101962.25;2614325;36;20026;-63
2021/09/04 02:56:20;;;;;;;32.58;18.17;;;;;;;12.73;100.00;101950.31;2612715;36;20085;-63
2021/09/04 02:58:48;;;;;;;30.23;17.40;;;;;;;12.73;100.00;101955.72;2614592;36;21927;-63
2021/09/04 03:01:16;;;;;;;34.80;18.38;;;;;;;12.67;100.00;101955.34;2614503;36;20170;-63
2021/09/04 03:03:45;;;;;;;32.40;17.40;;;;;;;12.68;100.00;101952.53;2615201;36;20583;-63
2021/09/04 03:06:13;;;;;;;30.85;18.63;;;;;;;12.82;100.00;101951.41;2615953;36;20524;-63
2021/09/04 03:08:41;;;;;;;32.03;18.65;;;;;;;12.87;100.00;101951.91;2615274;36;20110;-63
2021/09/04 03:11:12;;;;;;;31.42;18.45;;;;;;;12.85;100.00;101955.72;2615889;36;20442;-62
2021/09/04 03:13:41;;;;;;;27.20;16.98;;;;;;;12.79;100.00;101949.84;2614698;36;20154;-63
2021/09/04 03:16:09;;;;;;;30.38;17.25;;;;;;;12.80;100.00;101954.22;2615534;36;20168;-63
2021/09/04 03:18:37;;;;;;;31.73;17.35;;;;;;;12.83;100.00;101955.84;2616154;31;20162;-63
2021/09/04 03:21:05;;;;;;;32.78;17.30;;;;;;;12.85;100.00;101951.16;2614686;36;20129;-63
2021/09/04 03:23:34;;;;;;;28.80;17.15;;;;;;;12.88;100.00;101953.63;2613961;36;20697;-63
2021/09/04 03:26:02;;;;;;;32.92;15.65;;;;;;;12.85;100.00;101948.44;2615748;36;20057;-63
2021/09/04 03:28:33;;;;;;;28.80;17.13;;;;;;;12.85;100.00;101956.56;2615788;36;20138;-63
2021/09/04 03:31:01;;;;;;;27.13;16.23;;;;;;;12.87;100.00;101957.31;2614043;36;20137;-63
2021/09/04 03:33:29;;;;;;;32.15;15.98;;;;;;;12.86;100.00;101950.19;2615133;36;20114;-63
2021/09/04 03:35:57;;;;;;;29.38;15.95;;;;;;;12.92;100.00;101952.38;2614693;36;20110;-63
2021/09/04 03:38:25;;;;;;;28.42;14.88;;;;;;;13.00;100.00;101951.78;2615589;36;20157;-63
2021/09/04 03:40:54;;;;;;;26.75;15.07;;;;;;;13.00;100.00;101951.78;2614496;36;20053;-63
2021/09/04 03:43:22;;;;;;;25.40;15.63;;;;;;;12.97;100.00;101949.34;2616028;36;20162;-63
2021/09/04 03:45:53;;;;;;;26.15;14.52;;;;;;;12.95;100.00;101954.84;2613887;36;20125;-63
2021/09/04 03:48:21;;;;;;;28.20;15.68;;;;;;;13.06;100.00;101950.41;2614363;36;20126;-62
2021/09/04 03:50:49;;;;;;;26.80;15.18;;;;;;;13.04;100.00;101946.97;2614942;36;20134;-62
2021/09/04 03:53:17;;;;;;;25.88;13.93;;;;;;;13.00;100.00;101951.78;2615154;36;20138;-63
2021/09/04 03:55:45;;;;;;;22.92;13.90;;;;;;;12.99;100.00;101949.19;2612930;36;20077;-62
2021/09/04 03:58:13;;;;;;;26.45;15.45;;;;;;;12.94;100.00;101953.13;2614121;36;20042;-62
2021/09/04 04:00:42;;;;;;;28.40;15.02;;;;;;;12.95;100.00;101954.84;2614524;36;20039;-62
2021/09/04 04:03:25;;;;;;;26.35;14.18;;;;;;;12.96;100.00;101953.84;2615132;54;20629;-62
2021/09/04 04:05:56;;;;;;;26.15;14.35;;;;;;;12.92;100.00;101956.94;2613973;36;20023;-62
2021/09/04 04:08:24;;;;;;;25.33;14.25;;;;;;;12.92;100.00;101960.50;2615645;36;20672;-62
2021/09/04 04:10:53;;;;;;;26.38;14.55;;;;;;;12.94;100.00;101960.34;2614676;31;20031;-62
2021/09/04 04:13:21;;;;;;;23.92;13.90;;;;;;;12.94;100.00;101953.13;2614939;36;20956;-62
2021/09/04 04:15:49;;;;;;;27.05;14.80;;;;;;;12.97;100.00;101947.47;2614015;36;20651;-62
2021/09/04 04:18:17;;;;;;;25.80;14.50;;;;;;;12.95;100.00;101959.38;2615958;36;20114;-63
2021/09/04 04:20:45;;;;;;;24.80;14.07;;;;;;;12.97;100.00;101968.25;2614439;36;20110;-62
2021/09/04 04:23:16;;;;;;;22.77;14.43;;;;;;;12.93;100.00;101962.22;2614889;36;20026;-63
2021/09/04 04:25:44;;;;;;;24.95;14.00;;;;;;;12.88;100.00;101958.16;2614130;36;20129;-63
2021/09/04 04:28:13;;;;;;;21.27;13.30;;;;;;;12.98;100.00;101959.13;2614007;36;20218;-62
2021/09/04 04:30:41;;;;;;;22.85;13.27;;;;;;;12.95;100.00;101946.72;2613146;36;20054;-62
2021/09/04 04:33:09;;;;;;;23.65;13.70;;;;;;;12.82;100.00;101947.84;2614412;31;20122;-62
2021/09/04 04:35:37;;;;;;;23.00;13.15;;;;;;;12.88;100.00;101947.34;2614459;36;20034;-62
2021/09/04 04:38:06;;;;;;;25.13;14.80;;;;;;;12.89;100.00;101947.22;2613269;36;20130;-62
2021/09/04 04:40:36;;;;;;;22.57;13.97;;;;;;;12.93;100.00;101946.00;2614453;36;20072;-62
2021/09/04 04:43:05;;;;;;;22.73;13.10;;;;;;;12.95;100.00;101952.13;2614565;31;20169;-62
2021/09/04 04:45:33;;;;;;;23.97;13.27;;;;;;;12.97;100.00;101952.03;2612621;36;20133;-62
2021/09/04 04:48:02;;;;;;;24.73;14.13;;;;;;;12.93;100.00;101954.09;2615478;36;20078;-62
2021/09/04 04:50:30;;;;;;;22.30;12.70;;;;;;;12.92;100.00;101954.22;2614573;36;20161;-62
2021/09/04 04:52:58;;;;;;;23.83;13.77;;;;;;;12.92;100.00;101949.69;2613820;36;20122;-62
2021/09/04 04:55:26;;;;;;;20.63;13.32;;;;;;;13.03;100.00;101956.06;2613979;36;20129;-62
2021/09/04 04:57:57;;;;;;;25.35;13.57;;;;;;;13.02;100.00;101952.50;2614638;31;20106;-61
2021/09/04 05:00:25;;;;;;;21.35;13.13;;;;;;;12.98;100.00;101951.03;2613800;31;20625;-62
2021/09/04 05:02:53;;;;;;;15.97;11.93;;;;;;;13.11;100.00;101948.19;2615311;36;20166;-62
2021/09/04 05:05:22;;;;;;;21.77;12.40;;;;;;;13.00;100.00;101950.91;2615980;36;20122;-63
2021/09/04 05:07:50;;;;;;;24.45;12.82;;;;;;;13.03;100.00;101948.81;2615514;36;20038;-62
2021/09/04 05:10:18;;;;;;;22.00;12.85;;;;;;;12.97;100.00;101958.28;2615804;31;20595;-63
2021/09/04 05:12:46;;;;;;;22.92;13.00;;;;;;;13.03;100.00;101961.47;2615605;36;20589;-62
2021/09/04 05:15:17;;;;;;;19.90;12.80;;;;;;;13.08;100.00;101972.78;2614028;36;20088;-63
2021/09/04 05:17:45;;;;;;;22.70;12.65;;;;;;;13.00;100.00;101975.22;2616035;36;20499;-62
2021/09/04 05:20:14;;;;;;;23.55;12.77;;;;;;;12.96;100.00;101967.38;2615782;31;20712;-62
2021/09/04 05:22:46;;;;;;;19.17;12.93;;;;;;;12.95;100.00;101976.44;2615015;36;20086;-62
2021/09/04 05:25:15;;;;;;;21.08;13.00;;;;;;;12.96;100.00;101972.78;2615195;36;20037;-63
2021/09/04 05:27:43;;;;;;;24.25;13.25;;;;;;;13.03;100.00;101983.06;2616582;36;20122;-63
2021/09/04 05:30:14;;;;;;;20.77;12.57;;;;;;;13.10;100.00;101974.38;2614262;36;20635;-63
2021/09/04 05:32:44;;;;;;;21.73;11.90;;;;;;;13.09;100.00;101982.59;2616767;36;20629;-63
2021/09/04 05:35:13;;;;;;;18.80;11.98;;;;;;;13.07;100.00;101984.56;2614695;36;20110;-63
2021/09/04 05:37:42;;;;;;;19.08;12.00;;;;;;;13.18;100.00;101981.00;2615543;36;20122;-63
2021/09/04 05:40:12;;;;;;;18.98;11.55;;;;;;;13.20;100.00;101973.59;2615819;36;20060;-63
2021/09/04 05:42:40;;;;;;;20.95;12.43;;;;;;;13.23;100.00;101974.19;2615194;36;20038;-64
2021/09/04 05:45:10;;;;;;;25.73;13.45;;;;;;;13.25;100.00;101974.94;2614537;36;20133;-63
2021/09/04 05:47:38;;;;;;;19.85;12.02;;;;;;;13.25;100.00;101966.84;2615622;36;20110;-63
2021/09/04 05:50:10;;;;;;;22.60;12.18;;;;;;;13.20;100.00;101966.34;2613824;36;20113;-63
2021/09/04 05:52:38;;;;;;;20.58;12.15;;;;;;;13.18;100.00;101970.19;2614330;36;20125;-63
2021/09/04 05:55:07;;;;;;;19.83;12.02;;;;;;;13.26;100.00;101973.94;2615264;36;20034;-63
2021/09/04 05:57:35;;;;;;;18.55;11.75;;;;;;;13.25;100.00;101976.78;2616397;31;20184;-63
2021/09/04 06:00:03;;;;;;;20.98;12.13;;;;;;;13.23;100.00;101976.91;2615281;36;20165;-64
2021/09/04 06:02:31;;;;;;;19.52;11.65;;;;;;;13.30;100.00;101978.13;2615815;31;20554;-63
2021/09/04 06:04:59;;;;;;;19.85;11.13;;;;;;;13.42;100.00;101984.38;2615534;36;20118;-63
2021/09/04 06:07:30;;;;;;;20.67;12.65;;;;;;;13.44;100.00;101976.16;2615816;36;20666;-63
2021/09/04 06:09:58;;;;;;;20.80;12.50;;;;;;;13.47;100.00;101984.00;2615523;36;20054;-63
2021/09/04 06:12:27;;;;;;;21.73;11.85;;;;;;;13.45;100.00;101986.00;2615839;36;20089;-63
2021/09/04 06:14:55;;;;;;;22.20;11.52;;;;;;;13.58;100.00;101985.84;2614195;36;20122;-63
2021/09/04 06:17:23;;;;;;;20.90;12.18;;;;;;;13.63;100.00;101973.66;2614450;36;20231;-63
2021/09/04 06:19:51;;;;;;;18.40;11.60;;;;;;;13.66;100.00;101975.22;2615195;36;20662;-63
2021/09/04 06:22:19;;;;;;;20.65;11.63;;;;;;;13.67;100.00;101971.53;2613121;36;20023;-64
2021/09/04 06:24:50;;;;;;;20.27;11.48;;;;;;;13.64;100.00;101977.19;2614443;36;20465;-64
2021/09/04 06:27:19;;;;;;;17.08;10.98;;;;;;;13.61;100.00;101977.47;2615297;36;20165;-63
2021/09/04 06:29:48;;;;;;;15.80;10.35;;;;;;;13.63;100.00;101976.34;2615057;36;20557;-63
2021/09/04 06:32:16;;;;;;;17.15;10.65;;;;;;;13.55;100.00;101962.59;2615309;36;20099;-63
2021/09/04 06:37:20;;;;;;;17.10;10.35;;;;;;;13.48;100.00;101975.75;2614734;36;20593;-63
2021/09/04 06:39:51;;;;;;;17.67;10.90;;;;;;;13.66;100.00;101965.28;2611660;36;20154;-62
2021/09/04 06:42:20;;;;;;;16.80;10.38;;;;;;;13.61;100.00;101959.38;2614663;36;20928;-63
2021/09/04 06:44:48;;;;;;;22.35;11.15;;;;;;;13.66;100.00;101967.09;2615951;36;20177;-65
2021/09/04 06:47:16;;;;;;;16.85;10.35;;;;;;;13.66;100.00;101978.78;2616601;31;20525;-63
2021/09/04 06:49:44;;;;;;;17.73;10.77;;;;;;;13.69;100.00;101974.09;2613773;54;20154;-64
2021/09/04 06:52:12;;;;;;;17.98;10.10;;;;;;;13.76;100.00;101976.16;2613856;36;20022;-63
2021/09/04 06:54:41;;;;;;;18.05;9.82;;;;;;;13.74;100.00;101972.72;2615403;36;20161;-63
2021/09/04 06:57:11;;;;;;;14.50;10.23;;;;;;;13.90;100.00;101968.72;2615011;36;20034;-63
2021/09/04 06:59:40;;;;;;;18.25;10.02;;;;;;;13.97;100.00;101962.66;2615472;36;20092;-62
2021/09/04 07:02:08;;;;;;;15.32;10.00;;;;;;;13.96;100.00;101960.94;2613893;36;21250;-63
2021/09/04 07:04:37;;;;;;;18.85;10.38;;;;;;;14.00;100.00;101959.69;2615062;31;20646;-63
2021/09/04 07:07:06;;;;;;;16.67;10.32;;;;;;;13.97;100.00;101964.50;2616390;36;20619;-63
2021/09/04 07:09:34;;;;;;;17.52;10.93;;;;;;;13.94;100.00;101973.75;2615476;31;20420;-64
2021/09/04 07:12:03;;;;;;;15.63;10.27;;;;;;;14.01;100.00;101974.06;2615818;36;20023;-62
2021/09/04 07:14:34;;;;;;;19.90;11.05;;;;;;;14.11;100.00;101979.56;2615716;36;20141;-63
2021/09/04 07:17:02;;;;;;;19.80;11.02;;;;;;;14.12;100.00;101979.44;2615329;31;20483;-63
2021/09/04 07:19:30;;;;;;;18.52;10.02;;;;;;;14.28;100.00;101975.38;2614744;36;20125;-63
2021/09/04 07:21:58;;;;;;;16.37;11.00;;;;;;;14.49;100.00;101972.69;2614201;36;20141;-62
2021/09/04 07:24:27;;;;;;;19.65;10.77;;;;;;;14.65;100.00;101967.66;2615941;36;20141;-63
2021/09/04 07:26:55;;;;;;;16.67;9.52;;;;;;;14.55;100.00;101974.84;2614510;36;20034;-62
2021/09/04 07:29:23;;;;;;;17.98;11.40;;;;;;;14.42;100.00;101971.50;2614942;36;20035;-63
2021/09/04 07:31:54;;;;;;;20.23;12.02;;;;;;;14.52;100.00;101972.41;2615751;36;20114;-63
2021/09/04 07:34:22;;;;;;;16.55;11.00;;;;;;;14.52;100.00;101969.69;2614930;36;20646;-64
2021/09/04 07:36:50;;;;;;;15.20;10.52;;;;;;;14.57;100.00;101972.00;2615342;36;20582;-63
2021/09/04 07:39:18;;;;;;;15.38;10.10;;;;;;;14.85;100.00;101978.56;2616333;36;20497;-62
2021/09/04 07:41:46;;;;;;;19.58;10.88;;;;;;;14.86;100.00;101973.00;2614690;31;20122;-63
2021/09/04 07:44:15;;;;;;;14.27;10.32;;;;;;;14.86;100.00;101969.44;2614725;36;20117;-63
2021/09/04 07:49:15;;;;;;;18.70;11.52;;;;;;;14.70;100.00;101975.38;2613847;36;20031;-63
2021/09/04 07:51:43;;;;;;;14.70;10.13;;;;;;;14.81;100.00;101977.13;2614157;36;20080;-62
2021/09/04 07:54:11;;;;;;;17.65;10.32;;;;;;;14.95;100.00;101975.91;2615825;36;20142;-62
2021/09/04 07:56:40;;;;;;;15.70;10.23;;;;;;;14.92;100.00;101971.59;2615683;36;20122;-63
2021/09/04 07:59:08;;;;;;;20.38;11.50;;;;;;;14.96;100.00;101970.34;2615069;36;20392;-63
2021/09/04 08:01:37;;;;;;;15.10;9.93;;;;;;;15.19;100.00;101980.94;2614768;36;20030;-62
2021/09/04 08:04:05;;;;;;;14.00;9.35;;;;;;;15.06;100.00;101983.91;2615584;36;20197;-63
2021/09/04 08:06:36;;;;;;;16.67;9.98;;;;;;;15.10;100.00;101971.78;2615611;36;20145;-63
2021/09/04 08:09:04;;;;;;;16.73;10.43;;;;;;;15.01;100.00;101976.19;2615200;36;20130;-63
2021/09/04 08:11:32;;;;;;;17.25;9.93;;;;;;;14.98;100.00;101975.63;2614383;36;20159;-64
2021/09/04 08:14:01;;;;;;;16.45;8.88;;;;;;;15.11;100.00;101967.25;2614449;36;20150;-63
2021/09/04 08:16:29;;;;;;;14.45;9.35;;;;;;;15.17;100.00;101980.25;2614655;36;20543;-62
2021/09/04 08:18:57;;;;;;;13.18;9.20;;;;;;;15.12;100.00;101971.66;2630869;36;20035;-62
2021/09/04 08:21:25;;;;;;;17.30;9.90;;;;;;;15.15;100.00;101974.09;2611011;36;20626;-62
2021/09/04 08:23:56;;;;;;;13.57;9.03;;;;;;;15.47;100.00;101973.00;2615730;36;20574;-62
2021/09/04 08:26:24;;;;;;;15.65;8.93;;;;;;;15.77;100.00;101964.75;2614491;36;20161;-63
2021/09/04 08:28:53;;;;;;;17.08;9.27;;;;;;;16.08;100.00;101961.88;2614565;36;20615;-62
2021/09/04 08:31:21;;;;;;;15.87;8.87;;;;;;;16.39;100.00;101964.41;2613507;31;20069;-62
2021/09/04 08:33:49;;;;;;;13.18;8.77;;;;;;;16.82;100.00;101960.22;2614776;36;20154;-63
2021/09/04 08:36:17;;;;;;;12.50;9.30;;;;;;;16.79;100.00;101963.25;2615081;36;20121;-62
2021/09/04 08:38:46;;;;;;;15.75;9.07;;;;;;;17.02;100.00;101962.88;2614729;36;20129;-63
2021/09/04 08:41:18;;;;;;;13.50;9.20;;;;;;;16.65;100.00;101961.00;2613199;36;20068;-63
2021/09/04 08:43:46;;;;;;;13.80;8.50;;;;;;;16.92;100.00;101970.25;2614706;36;20134;-63
2021/09/04 08:46:16;;;;;;;16.15;8.88;;;;;;;16.89;100.00;101970.53;2615636;36;20165;-62
2021/09/04 08:48:45;;;;;;;17.13;9.00;;;;;;;17.27;100.00;101980.34;2616422;36;20037;-62
2021/09/04 08:51:13;;;;;;;13.05;8.15;;;;;;;17.59;100.00;101981.69;2614510;36;20118;-63
2021/09/04 08:53:42;;;;;;;13.65;8.10;;;;;;;18.11;100.00;101972.81;2615484;36;20154;-63
2021/09/04 08:56:11;;;;;;;13.43;8.40;;;;;;;17.72;100.00;101988.63;2616546;31;20503;-63
2021/09/04 08:58:42;;;;;;;11.80;7.70;;;;;;;17.46;100.00;101978.50;2614878;36;20073;-62
2021/09/04 09:01:17;;;;;;;14.63;7.82;;;;;;;17.46;100.00;101979.38;2615254;36;20418;-62
2021/09/04 09:03:49;;;;;;;11.82;8.23;;;;;;;17.51;100.00;101982.47;2616911;31;20642;-62
2021/09/04 09:06:26;;;;;;;12.40;7.10;;;;;;;17.90;100.00;101983.19;2615557;36;20034;-63
2021/09/04 09:08:54;;;;;;;13.30;7.68;;;;;;;17.59;100.00;101983.56;2615972;36;20118;-62
2021/09/04 09:11:24;;;;;;;14.27;8.00;;;;;;;17.76;100.00;101992.75;2615376;36;20035;-62
2021/09/04 09:13:55;;;;;;;;;;;;;;;17.88;100.00;101990.66;2615124;36;20022;-62
2021/09/04 09:16:26;;;;;;;14.13;8.32;;;;;;;18.15;100.00;101989.69;2616046;36;20040;-63
2021/09/04 09:18:59;;;;;;;11.18;7.90;;;;;;;18.56;100.00;101993.59;2615169;36;20126;-63
2021/09/04 09:21:31;;;;;;;11.95;7.60;;;;;;;18.75;100.00;101988.91;2616029;36;20578;-62
2021/09/04 09:24:10;;;;;;;12.90;7.47;;;;;;;19.09;100.00;101982.59;2615114;36;20048;-63
2021/09/04 09:26:48;;;;;;;12.57;7.60;;;;;;;19.26;100.00;101980.78;2617336;31;20530;-62
2021/09/04 09:29:21;;;;;;;13.05;7.97;;;;;;;19.18;100.00;101984.31;2616914;36;20165;-62
2021/09/04 09:34:48;;;;;;;13.93;8.30;;;;;;;18.34;100.00;101994.09;2614274;36;20035;-63
2021/09/04 09:37:17;;;;;;;12.55;7.63;;;;;;;18.54;100.00;101990.16;2615084;36;20034;-62
2021/09/04 09:39:48;;;;;;;15.38;8.57;;;;;;;18.29;100.00;101988.28;2615941;36;20031;-62
2021/09/04 09:42:17;;;;;;;13.48;7.95;;;;;;;18.05;100.00;101989.81;2615203;36;20053;-63
2021/09/04 09:44:48;;;;;;;12.95;7.00;;;;;;;17.91;100.00;101983.03;2616909;36;20403;-62
2021/09/04 09:47:16;;;;;;;12.43;8.25;;;;;;;17.50;100.00;101983.50;2615576;36;20110;-62
2021/09/04 09:49:46;;;;;;;12.17;8.40;;;;;;;17.77;100.00;101981.72;2616143;36;20114;-63
2021/09/04 09:52:16;;;;;;;11.20;7.82;;;;;;;17.96;100.00;101978.00;2616614;31;20129;-62
2021/09/04 09:54:46;;;;;;;12.82;7.95;;;;;;;17.79;100.00;101982.41;2615834;36;20085;-63
2021/09/04 09:57:15;;;;;;;12.43;8.43;;;;;;;17.88;100.00;101977.03;2615199;31;20073;-63
2021/09/04 09:59:48;;;;;;;10.80;6.95;;;;;;;18.30;100.00;101977.22;2615475;36;20057;-62
2021/09/04 10:02:17;;;;;;;13.02;8.02;;;;;;;18.18;100.00;101984.81;2615911;36;20033;-62
2021/09/04 10:04:49;;;;;;;12.45;8.43;;;;;;;18.13;100.00;101968.06;2615289;36;20085;-62
2021/09/04 10:07:19;;;;;;;13.70;7.82;;;;;;;18.48;100.00;101969.00;2615677;36;20169;-63
2021/09/04 10:09:47;;;;;;;;;;;;;;;18.25;100.00;101978.72;2616039;36;20031;-63
2021/09/04 10:12:18;;;;;;;12.00;8.23;;;;;;;18.15;100.00;101982.41;2615279;36;19950;-62
2021/09/04 10:14:50;;;;;;;12.30;7.60;;;;;;;18.70;100.00;101967.56;2616484;31;20125;-62
2021/09/04 10:17:22;;;;;;;14.25;8.13;;;;;;;18.76;100.00;101965.19;2615989;36;20635;-63
2021/09/04 10:19:51;;;;;;;11.80;8.07;;;;;;;18.82;100.00;101967.28;2614369;31;20356;-62
2021/09/04 10:22:20;;;;;;;12.45;8.05;;;;;;;18.93;100.00;101961.56;2615820;36;20022;-62
2021/09/04 10:24:50;;;;;;;10.53;7.57;;;;;;;18.84;100.00;101959.78;2615989;36;20109;-63
2021/09/04 10:27:32;;;;;;;12.98;7.43;;;;;;;18.88;100.00;101953.03;2615835;36;20563;-62
2021/09/04 10:30:23;;;;;;;12.88;7.20;;;;;;;18.83;100.00;101958.94;2615681;36;20110;-63
2021/09/04 10:32:59;;;;;;;13.75;7.63;;;;;;;19.12;100.00;101948.66;2615737;36;20110;-64
2021/09/04 10:35:47;;;;;;;13.38;7.35;;;;;;;19.32;100.00;101955.56;2615990;36;20185;-62
2021/09/04 10:38:35;;;;;;;20.40;7.78;;;;;;;19.06;100.00;101955.63;2616056;36;20451;-63
2021/09/04 10:41:19;;;;;;;11.23;7.90;;;;;;;19.06;100.00;101952.91;2615420;36;20034;-63
2021/09/04 10:43:50;;;;;;;12.20;7.25;;;;;;;19.16;100.00;101945.44;2616380;36;20035;-63
2021/09/04 10:46:21;;;;;;;13.68;7.70;;;;;;;19.43;100.00;101943.44;2615773;36;20038;-63
2021/09/04 10:49:02;;;;;;;12.05;7.40;;;;;;;19.60;100.00;101941.59;2616216;36;20118;-63
2021/09/04 10:51:46;;;;;;;11.43;7.97;;;;;;;19.65;100.00;101946.56;2616071;36;20117;-63
2021/09/04 10:54:14;;;;;;;16.27;7.32;;;;;;;19.62;100.00;101934.09;2616756;31;20468;-64
2021/09/04 10:56:42;;;;;;;12.45;7.68;;;;;;;19.55;100.00;101938.50;2615731;36;20034;-62
2021/09/04 10:59:10;;;;;;;16.43;7.73;;;;;;;19.38;100.00;101940.38;2616131;36;20145;-63
2021/09/04 11:02:04;;;;;;;10.80;7.47;;;;;;;19.56;100.00;101952.00;2613996;36;20482;-63
2021/09/04 11:04:32;;;;;;;12.70;7.53;;;;;;;19.77;100.00;101931.53;2615419;36;20038;-62
2021/09/04 11:07:01;;;;;;;12.23;7.93;;;;;;;19.64;100.00;101936.63;2616219;36;20034;-63
2021/09/04 11:09:55;;;;;;;10.97;7.73;;;;;;;19.74;100.00;101943.66;2615999;36;20666;-62
2021/09/04 11:12:23;;;;;;;10.95;7.55;;;;;;;20.15;100.00;101944.69;2612436;36;20378;-63
2021/09/04 11:14:51;;;;;;;11.03;7.57;;;;;;;19.75;100.00;101936.31;2614418;36;20034;-63
2021/09/04 11:17:22;;;;;;;12.50;7.93;;;;;;;19.83;100.00;101936.34;2615436;36;20323;-62
2021/09/04 11:19:51;;;;;;;12.00;8.13;;;;;;;19.69;100.00;101928.81;2615261;36;20655;-63
2021/09/04 11:22:20;;;;;;;16.05;8.98;;;;;;;19.56;100.00;101930.16;2615446;36;20137;-63